createdAt,value
2019-04-20T00:02:18.889Z,9.20
2019-04-20T00:04:49.475Z,8.97
2019-04-20T00:07:24.582Z,9.60
2019-04-20T00:10:06.266Z,9.33
2019-04-20T00:12:44.201Z,9.47
2019-04-20T00:15:07.216Z,8.97
2019-04-20T00:17:47.695Z,8.87
2019-04-20T00:20:20.722Z,9.27
2019-04-20T00:22:53.264Z,9.63
2019-04-20T00:25:41.705Z,9.70
2019-04-20T00:28:25.430Z,9.60
2019-04-20T00:31:04.155Z,8.77
2019-04-20T00:33:27.013Z,8.97
2019-04-20T00:35:48.566Z,9.33
2019-04-20T00:38:22.742Z,9.37
2019-04-20T00:41:00.060Z,8.87
2019-04-20T00:43:32.904Z,8.77
2019-04-20T00:46:08.259Z,9.07
2019-04-20T00:48:48.676Z,7.90
2019-04-20T00:51:32.678Z,8.37
2019-04-20T00:53:51.223Z,8.37
2019-04-20T00:56:22.370Z,8.23
2019-04-20T00:59:09.238Z,7.50
2019-04-20T01:01:50.169Z,7.60
2019-04-20T01:04:20.241Z,7.63
2019-04-20T01:07:06.066Z,8.50
2019-04-20T01:09:47.766Z,7.80
2019-04-20T01:12:26.034Z,7.57
2019-04-20T01:15:01.074Z,8.10
2019-04-20T01:17:31.897Z,7.10
2019-04-20T01:20:08.159Z,7.40
2019-04-20T01:22:48.191Z,8.90
2019-04-20T01:25:24.249Z,8.40
2019-04-20T01:28:09.080Z,8.40
2019-04-20T01:30:34.016Z,8.30
2019-04-20T01:33:16.364Z,8.90
2019-04-20T01:35:51.606Z,8.80
2019-04-20T01:38:29.606Z,9.50
2019-04-20T01:40:46.327Z,9.73
2019-04-20T01:43:20.482Z,9.30
2019-04-20T01:46:01.401Z,9.37
2019-04-20T01:48:33.661Z,9.40
2019-04-20T01:51:07.274Z,10.97
2019-04-20T01:54:03.911Z,10.77
2019-04-20T01:56:37.403Z,10.80
2019-04-20T01:59:24.176Z,11.37
2019-04-20T02:01:46.831Z,10.97
2019-04-20T02:04:33.939Z,10.47
2019-04-20T02:07:03.834Z,10.17
2019-04-20T02:09:43.279Z,10.43
2019-04-20T02:12:15.446Z,11.03
2019-04-20T02:14:51.799Z,10.37
2019-04-20T02:17:28.372Z,10.63
2019-04-20T02:20:10.480Z,10.67
2019-04-20T02:22:47.668Z,9.27
2019-04-20T02:25:03.824Z,9.17
2019-04-20T02:27:43.263Z,9.53
2019-04-20T02:30:51.743Z,8.93
2019-04-20T02:33:32.250Z,9.33
2019-04-20T02:36:04.836Z,9.63
2019-04-20T02:38:48.905Z,9.03
2019-04-20T02:41:09.875Z,9.33
2019-04-20T02:46:14.830Z,9.47
2019-04-20T02:49:05.439Z,9.70
2019-04-20T02:51:23.555Z,9.73
2019-04-20T02:54:11.455Z,9.43
2019-04-20T02:56:45.262Z,9.77
2019-04-20T02:59:32.944Z,9.93
2019-04-20T03:01:36.046Z,9.53
2019-04-20T03:03:54.597Z,9.20
2019-04-20T03:06:36.569Z,9.60
2019-04-20T03:09:22.482Z,9.43
2019-04-20T03:14:24.018Z,8.60
2019-04-20T03:17:08.736Z,9.60
2019-04-20T03:19:29.984Z,9.50
2019-04-20T03:22:19.194Z,8.97
2019-04-20T03:24:50.040Z,9.80
2019-04-20T03:27:20.910Z,10.63
2019-04-20T03:30:40.258Z,10.27
2019-04-20T03:35:29.880Z,11.23
2019-04-20T03:38:00.170Z,10.37
2019-04-20T03:40:24.452Z,10.87
2019-04-20T03:42:46.535Z,11.07
2019-04-20T03:45:22.663Z,12.10
2019-04-20T03:48:06.147Z,10.70
2019-04-20T03:50:49.202Z,11.70
2019-04-20T03:53:22.976Z,10.77
2019-04-20T03:55:56.414Z,11.50
2019-04-20T03:58:37.850Z,9.93
2019-04-20T04:01:43.091Z,11.07
2019-04-20T04:04:05.185Z,10.73
2019-04-20T04:06:29.561Z,10.03
2019-04-20T04:09:10.114Z,10.97
2019-04-20T04:11:48.952Z,10.20
2019-04-20T04:14:07.107Z,10.23
2019-04-20T04:16:45.775Z,10.23
2019-04-20T04:19:21.521Z,10.20
2019-04-20T04:22:04.177Z,10.63
2019-04-20T04:24:31.603Z,11.07
2019-04-20T04:27:09.270Z,10.47
2019-04-20T04:29:52.379Z,10.60
2019-04-20T04:32:46.931Z,10.87
2019-04-20T04:35:09.220Z,12.60
2019-04-20T04:37:45.910Z,13.47
2019-04-20T04:40:31.702Z,13.20
2019-04-20T04:42:58.428Z,11.03
2019-04-20T04:45:14.510Z,11.40
2019-04-20T04:47:47.333Z,11.47
2019-04-20T04:50:24.890Z,11.40
2019-04-20T04:53:04.502Z,11.67
2019-04-20T04:55:42.945Z,10.87
2019-04-20T04:58:04.492Z,9.90
2019-04-20T05:00:38.840Z,9.67
2019-04-20T05:03:28.495Z,10.00
2019-04-20T05:06:06.562Z,9.00
2019-04-20T05:08:31.720Z,8.20
2019-04-20T05:11:01.005Z,9.13
2019-04-20T05:13:43.924Z,9.57
2019-04-20T05:16:27.628Z,9.20
2019-04-20T05:19:11.915Z,9.53
2019-04-20T05:22:01.314Z,9.87
2019-04-20T05:24:33.808Z,9.53
2019-04-20T05:27:17.702Z,8.47
2019-04-20T05:29:32.455Z,9.27
2019-04-20T05:32:07.898Z,9.27
2019-04-20T05:34:58.165Z,9.43
2019-04-20T05:37:57.358Z,9.27
2019-04-20T05:40:13.979Z,9.13
2019-04-20T05:42:44.189Z,8.77
2019-04-20T05:45:16.676Z,9.30
2019-04-20T05:47:48.546Z,9.53
2019-04-20T05:50:27.625Z,8.53
2019-04-20T05:53:07.253Z,8.47
2019-04-20T05:55:40.031Z,8.50
2019-04-20T05:58:17.931Z,8.40
2019-04-20T06:00:56.803Z,7.90
2019-04-20T06:03:23.346Z,8.73
2019-04-20T06:06:05.125Z,8.90
2019-04-20T06:11:09.339Z,8.40
2019-04-20T06:13:34.792Z,8.47
2019-04-20T06:16:18.677Z,7.93
2019-04-20T06:18:58.220Z,7.43
2019-04-20T06:21:52.888Z,7.70
2019-04-20T06:24:36.310Z,7.73
2019-04-20T06:27:16.109Z,7.30
2019-04-20T06:29:38.067Z,6.90
2019-04-20T06:32:17.394Z,6.97
2019-04-20T06:34:50.094Z,6.87
2019-04-20T06:37:21.318Z,8.63
2019-04-20T06:39:59.083Z,8.70
2019-04-20T06:42:23.481Z,8.17
2019-04-20T06:45:07.064Z,8.43
2019-04-20T06:47:39.314Z,8.10
2019-04-20T06:50:12.858Z,7.50
2019-04-20T06:53:01.916Z,7.87
2019-04-20T06:55:42.973Z,7.27
2019-04-20T06:58:28.028Z,7.33
2019-04-20T07:00:53.441Z,6.57
2019-04-20T07:06:19.483Z,6.50
2019-04-20T07:11:04.354Z,5.97
2019-04-20T07:13:29.778Z,5.30
2019-04-20T07:16:21.635Z,5.13
2019-04-20T07:19:07.644Z,4.93
2019-04-20T07:22:01.881Z,5.00
2019-04-20T07:24:38.467Z,5.53
2019-04-20T07:27:03.960Z,5.57
2019-04-20T07:29:41.114Z,5.00
2019-04-20T07:32:07.621Z,4.73
2019-04-20T07:34:51.327Z,4.73
2019-04-20T07:37:46.637Z,4.80
2019-04-20T07:40:02.676Z,3.83
2019-04-20T07:42:34.833Z,4.17
2019-04-20T07:45:16.433Z,4.00
2019-04-20T07:47:46.591Z,3.60
2019-04-20T07:50:12.910Z,3.43
2019-04-20T07:52:42.877Z,3.20
2019-04-20T07:57:55.026Z,3.40
2019-04-20T08:00:48.440Z,3.80
2019-04-20T08:03:24.693Z,4.37
2019-04-20T08:05:46.776Z,3.90
2019-04-20T08:08:37.699Z,4.43
2019-04-20T08:11:00.754Z,4.70
2019-04-20T08:13:49.030Z,4.33
2019-04-20T08:16:25.834Z,4.07
2019-04-20T08:18:55.761Z,4.00
2019-04-20T08:21:29.395Z,4.10
2019-04-20T08:24:02.604Z,3.80
2019-04-20T08:26:23.102Z,3.10
2019-04-20T08:29:01.550Z,3.47
2019-04-20T08:31:47.373Z,2.90
2019-04-20T08:37:05.948Z,2.83
2019-04-20T08:39:55.541Z,2.60
2019-04-20T08:42:16.214Z,3.00
2019-04-20T08:45:03.608Z,2.97
2019-04-20T08:47:37.938Z,2.60
2019-04-20T08:55:29.906Z,2.40
2019-04-20T08:57:45.132Z,2.03
2019-04-20T09:00:28.867Z,1.97
2019-04-20T09:03:07.892Z,2.00
2019-04-20T09:05:47.645Z,2.20
2019-04-20T09:08:16.127Z,2.07
2019-04-20T09:10:59.815Z,1.87
2019-04-20T09:13:40.781Z,2.57
2019-04-20T09:16:13.128Z,2.37
2019-04-20T09:18:57.898Z,2.23
2019-04-20T09:21:51.027Z,2.17
2019-04-20T09:24:52.797Z,2.47
2019-04-20T09:27:21.876Z,2.60
2019-04-20T09:33:14.530Z,2.57
2019-04-20T09:35:47.364Z,2.20
2019-04-20T09:38:29.993Z,2.20
2019-04-20T09:41:09.115Z,2.10
2019-04-20T09:43:30.412Z,2.23
2019-04-20T09:46:06.677Z,2.10
2019-04-20T09:48:42.647Z,2.30
2019-04-20T09:51:30.762Z,2.23
2019-04-20T09:54:12.513Z,1.70
2019-04-20T09:57:09.179Z,2.00
2019-04-20T09:59:57.465Z,2.20
2019-04-20T10:02:31.023Z,1.93
2019-04-20T10:05:17.759Z,2.00
2019-04-20T10:08:06.749Z,2.03
2019-04-20T10:10:41.718Z,2.10
2019-04-20T10:13:15.392Z,2.20
2019-04-20T10:15:59.692Z,1.93
2019-04-20T10:18:45.475Z,2.20
2019-04-20T10:21:23.713Z,2.30
2019-04-20T10:27:08.275Z,1.93
2019-04-20T10:29:47.581Z,2.20
2019-04-20T10:32:37.703Z,2.00
2019-04-20T10:35:23.338Z,1.93
2019-04-20T10:38:11.464Z,2.20
2019-04-20T10:41:04.987Z,2.00
2019-04-20T10:43:49.018Z,1.93
2019-04-20T10:46:31.155Z,2.10
2019-04-20T10:49:13.645Z,2.27
2019-04-20T10:51:51.361Z,2.10
2019-04-20T10:54:24.729Z,2.00
2019-04-20T10:56:57.792Z,2.30
2019-04-20T10:59:31.755Z,1.50
2019-04-20T11:02:05.801Z,1.90
2019-04-20T11:04:38.815Z,1.90
2019-04-20T11:07:12.516Z,1.47
2019-04-20T11:09:46.979Z,1.80
2019-04-20T11:12:20.134Z,1.90
2019-04-20T11:14:54.209Z,1.73
2019-04-20T11:17:29.787Z,1.80
2019-04-20T11:20:01.550Z,1.90
2019-04-20T11:22:34.738Z,1.80
2019-04-20T11:25:08.379Z,1.83
2019-04-20T11:27:40.906Z,2.07
2019-04-20T11:30:16.127Z,2.80
2019-04-20T11:32:49.669Z,1.97
2019-04-20T11:35:27.786Z,1.80
2019-04-20T11:37:57.461Z,2.23
2019-04-20T11:40:30.824Z,2.00
2019-04-20T11:43:03.943Z,2.27
2019-04-20T11:45:36.813Z,1.90
2019-04-20T11:48:09.635Z,1.87
2019-04-20T11:50:43.378Z,2.00
2019-04-20T11:53:17.471Z,2.00
2019-04-20T11:55:52.126Z,1.53
2019-04-20T11:58:26.100Z,1.90
2019-04-20T12:01:08.532Z,1.70
2019-04-20T12:03:47.825Z,1.80
2019-04-20T12:06:10.492Z,1.70
2019-04-20T12:08:44.323Z,1.73
2019-04-20T12:11:26.496Z,1.90
2019-04-20T12:13:54.519Z,1.60
2019-04-20T12:16:27.819Z,1.53
2019-04-20T12:19:02.316Z,1.80
2019-04-20T12:21:35.008Z,1.50
2019-04-20T12:24:07.707Z,2.00
2019-04-20T12:26:40.612Z,1.70
2019-04-20T12:29:16.211Z,1.83
2019-04-20T12:31:51.101Z,1.70
2019-04-20T12:34:24.555Z,1.60
2019-04-20T12:36:58.412Z,1.57
2019-04-20T12:39:31.354Z,1.70
2019-04-20T12:42:08.128Z,1.70
2019-04-20T12:44:41.818Z,1.57
2019-04-20T12:47:14.595Z,1.60
2019-04-20T12:49:47.586Z,1.70
2019-04-20T12:52:20.726Z,2.30
2019-04-20T12:54:54.487Z,1.77
2019-04-20T12:57:28.874Z,1.93
2019-04-20T13:00:03.566Z,1.77
2019-04-20T13:02:37.551Z,1.77
2019-04-20T13:05:11.546Z,1.47
2019-04-20T13:07:49.314Z,1.50
2019-04-20T13:10:21.433Z,1.57
2019-04-20T13:13:04.950Z,1.77
2019-04-20T13:15:44.593Z,1.90
2019-04-20T13:18:23.329Z,1.80
2019-04-20T13:20:58.166Z,1.80
2019-04-20T13:23:31.076Z,1.70
2019-04-20T13:26:05.862Z,2.00
2019-04-20T13:28:39.062Z,1.90
2019-04-20T13:31:11.933Z,1.93
2019-04-20T13:33:45.322Z,2.00
2019-04-20T13:36:18.215Z,1.60
2019-04-20T13:38:51.934Z,1.60
2019-04-20T13:41:25.035Z,1.57
2019-04-20T13:44:00.104Z,1.93
2019-04-20T13:46:33.339Z,1.70
2019-04-20T13:49:07.092Z,1.60
2019-04-20T13:51:40.961Z,1.70
2019-04-20T13:54:17.992Z,2.13
2019-04-20T13:56:50.445Z,2.47
2019-04-20T13:59:35.167Z,1.77
2019-04-20T14:02:12.967Z,1.77
2019-04-20T14:04:56.992Z,2.10
2019-04-20T14:07:31.400Z,1.83
2019-04-20T14:10:05.868Z,2.17
2019-04-20T14:12:50.399Z,1.60
2019-04-20T14:15:13.647Z,1.70
2019-04-20T14:17:46.940Z,2.00
2019-04-20T14:20:22.153Z,1.80
2019-04-20T14:22:55.197Z,2.00
2019-04-20T14:25:29.005Z,2.00
2019-04-20T14:28:02.832Z,1.97
2019-04-20T14:30:38.013Z,1.87
2019-04-20T14:33:10.702Z,1.80
2019-04-20T14:35:43.373Z,2.07
2019-04-20T14:38:16.058Z,1.97
2019-04-20T14:40:50.414Z,1.90
2019-04-20T14:43:24.918Z,1.73
2019-04-20T14:45:58.806Z,1.80
2019-04-20T14:48:34.467Z,2.37
2019-04-20T14:51:08.048Z,2.00
2019-04-20T14:53:41.470Z,2.20
2019-04-20T14:56:15.366Z,2.20
2019-04-20T14:58:51.360Z,2.17
2019-04-20T15:01:28.203Z,2.10
2019-04-20T15:04:06.762Z,2.07
2019-04-20T15:06:38.555Z,2.30
2019-04-20T15:09:11.046Z,2.40
2019-04-20T15:11:45.143Z,2.40
2019-04-20T15:14:18.706Z,2.30
2019-04-20T15:16:52.856Z,2.10
2019-04-20T15:19:33.640Z,2.20
2019-04-20T15:22:09.375Z,2.20
2019-04-20T15:24:42.377Z,2.30
2019-04-20T15:27:16.251Z,2.17
2019-04-20T15:29:50.486Z,2.27
2019-04-20T15:32:23.077Z,2.30
2019-04-20T15:34:57.087Z,2.60
2019-04-20T15:37:30.948Z,2.27
2019-04-20T15:40:06.446Z,2.60
2019-04-20T15:42:53.735Z,2.50
2019-04-20T15:45:15.685Z,2.40
2019-04-20T15:47:49.973Z,2.57
2019-04-20T15:50:23.604Z,2.40
2019-04-20T15:53:00.049Z,2.53
2019-04-20T15:55:37.553Z,2.40
2019-04-20T15:58:08.433Z,2.40
2019-04-20T16:00:42.540Z,2.87
2019-04-20T16:03:23.330Z,2.53
2019-04-20T16:06:01.322Z,2.90
2019-04-20T16:08:36.721Z,2.77
2019-04-20T16:11:11.225Z,2.67
2019-04-20T16:13:49.459Z,3.00
2019-04-20T16:16:19.638Z,4.53
2019-04-20T16:18:52.864Z,9.20
2019-04-20T16:21:28.467Z,2.20
2019-04-20T16:24:04.617Z,5.63
2019-04-20T16:26:49.469Z,4.50
2019-04-20T16:29:17.818Z,6.40
2019-04-20T16:31:52.554Z,17.47
2019-04-20T16:34:25.431Z,4.07
2019-04-20T16:37:02.433Z,3.40
2019-04-20T16:39:36.840Z,2.93
2019-04-20T16:42:12.022Z,3.00
2019-04-20T16:44:47.216Z,3.00
2019-04-20T16:47:20.122Z,2.90
2019-04-20T16:49:55.056Z,2.50
2019-04-20T16:52:30.654Z,2.67
2019-04-20T16:55:04.141Z,2.87
2019-04-20T16:57:37.682Z,3.20
2019-04-20T17:00:11.502Z,3.27
2019-04-20T17:02:46.114Z,4.70
2019-04-20T17:05:19.500Z,4.83
2019-04-20T17:08:00.893Z,5.00
2019-04-20T17:14:27.565Z,6.43
2019-04-20T17:17:49.540Z,4.20
2019-04-20T17:20:34.720Z,4.40
2019-04-20T17:23:17.164Z,3.90
2019-04-20T17:26:03.935Z,17.23
2019-04-20T17:32:33.577Z,4.00
2019-04-20T17:35:55.193Z,4.37
2019-04-20T17:45:07.711Z,9.63
2019-04-20T17:51:22.439Z,53.10
2019-04-20T17:57:19.428Z,21.67
2019-04-20T18:04:05.464Z,13.47
2019-04-20T18:06:43.689Z,21.60
2019-04-20T18:09:34.521Z,55.53
2019-04-20T18:15:06.183Z,56.73
2019-04-20T18:17:58.799Z,48.73
2019-04-20T18:20:38.977Z,22.40
2019-04-20T18:23:24.826Z,17.40
2019-04-20T18:26:11.044Z,14.00
2019-04-20T18:28:56.152Z,16.60
2019-04-20T18:31:13.497Z,17.90
2019-04-20T18:33:51.653Z,19.23
2019-04-20T18:36:38.288Z,14.20
2019-04-20T18:39:38.025Z,13.20
2019-04-20T18:42:27.206Z,12.90
2019-04-20T18:48:15.870Z,15.93
2019-04-20T18:50:35.394Z,20.30
2019-04-20T18:53:05.592Z,22.37
2019-04-20T18:55:45.918Z,18.60
2019-04-20T18:58:15.260Z,20.90
2019-04-20T19:00:51.861Z,28.67
2019-04-20T19:03:29.944Z,26.80
2019-04-20T19:06:02.038Z,27.93
2019-04-20T19:08:40.422Z,20.30
2019-04-20T19:11:16.505Z,13.80
2019-04-20T19:13:51.233Z,13.50
2019-04-20T19:16:46.759Z,11.30
2019-04-20T19:19:27.030Z,12.50
2019-04-20T19:21:54.166Z,15.00
2019-04-20T19:24:29.713Z,17.10
2019-04-20T19:27:08.062Z,19.07
2019-04-20T19:29:44.829Z,18.27
2019-04-20T19:32:34.144Z,15.83
2019-04-20T19:34:57.490Z,11.53
2019-04-20T19:37:28.502Z,17.40
2019-04-20T19:40:10.794Z,16.90
2019-04-20T19:42:45.197Z,16.27
2019-04-20T19:45:37.498Z,17.33
2019-04-20T19:48:04.706Z,17.93
2019-04-20T19:50:44.182Z,19.27
2019-04-20T19:53:22.724Z,17.37
2019-04-20T19:55:48.037Z,15.33
2019-04-20T19:58:25.254Z,15.33
2019-04-20T20:00:59.577Z,12.40
2019-04-20T20:03:39.590Z,11.77
2019-04-20T20:06:22.512Z,11.73
2019-04-20T20:08:56.001Z,10.30
2019-04-20T20:11:29.894Z,11.17
2019-04-20T20:13:58.464Z,11.73
2019-04-20T20:16:50.463Z,9.90
2019-04-20T20:19:12.097Z,8.73
2019-04-20T20:21:55.502Z,8.97
2019-04-20T20:24:17.454Z,8.87
2019-04-20T20:26:56.704Z,8.20
2019-04-20T20:29:34.255Z,8.87
2019-04-20T20:32:10.365Z,7.60
2019-04-20T20:34:40.463Z,7.77
2019-04-20T20:37:23.733Z,7.63
2019-04-20T20:39:58.465Z,7.53
2019-04-20T20:42:32.942Z,8.30
2019-04-20T20:45:14.305Z,7.97
2019-04-20T20:47:55.076Z,8.23
2019-04-20T20:50:33.765Z,8.37
2019-04-20T20:52:58.689Z,7.63
2019-04-20T20:55:32.201Z,8.27
2019-04-20T20:58:01.941Z,7.90
2019-04-20T21:00:41.158Z,7.90
2019-04-20T21:03:07.438Z,7.73
2019-04-20T21:05:38.233Z,8.40
2019-04-20T21:08:13.775Z,8.20
2019-04-20T21:10:48.089Z,7.57
2019-04-20T21:13:21.471Z,8.73
2019-04-20T21:16:02.841Z,8.47
2019-04-20T21:18:49.003Z,8.90
2019-04-20T21:21:17.682Z,8.73
2019-04-20T21:23:48.125Z,8.30
2019-04-20T21:26:21.768Z,8.70
2019-04-20T21:28:48.017Z,8.30
2019-04-20T21:31:24.278Z,8.17
2019-04-20T21:33:57.211Z,8.60
2019-04-20T21:36:31.769Z,8.97
2019-04-20T21:39:08.681Z,8.77
2019-04-20T21:41:50.928Z,7.67
2019-04-20T21:44:25.057Z,8.57
2019-04-20T21:46:54.573Z,8.50
2019-04-20T21:49:39.944Z,7.77
2019-04-20T21:52:06.097Z,8.43
2019-04-20T21:54:36.036Z,9.23
2019-04-20T21:57:11.488Z,9.60
2019-04-20T21:59:50.522Z,9.17
2019-04-20T22:02:28.190Z,9.70
2019-04-20T22:04:57.638Z,9.43
2019-04-20T22:07:30.654Z,9.03
2019-04-20T22:10:04.978Z,8.97
2019-04-20T22:12:45.600Z,9.70
2019-04-20T22:15:22.465Z,9.37
2019-04-20T22:17:48.681Z,8.80
2019-04-20T22:20:32.520Z,9.57
2019-04-20T22:23:07.469Z,9.53
2019-04-20T22:25:50.467Z,9.23
2019-04-20T22:28:05.743Z,9.60
2019-04-20T22:30:39.915Z,9.53
2019-04-20T22:33:28.565Z,9.33
2019-04-20T22:36:02.175Z,8.43
2019-04-20T22:38:37.582Z,9.40
2019-04-20T22:41:13.880Z,8.90
2019-04-20T22:43:44.184Z,9.70
2019-04-20T22:46:23.708Z,9.40
2019-04-20T22:49:08.120Z,9.93
2019-04-20T22:51:39.943Z,9.50
2019-04-20T22:54:16.978Z,9.60
2019-04-20T22:56:50.914Z,10.10
2019-04-20T22:59:19.114Z,9.80
2019-04-20T23:01:56.179Z,10.33
2019-04-20T23:04:26.564Z,10.93
2019-04-20T23:07:00.928Z,10.70
2019-04-20T23:09:43.888Z,12.07
2019-04-20T23:12:13.406Z,11.93
2019-04-20T23:14:44.603Z,14.70
2019-04-20T23:17:24.387Z,12.57
2019-04-20T23:19:56.165Z,10.70
2019-04-20T23:22:35.979Z,9.17
2019-04-20T23:25:03.119Z,10.17
2019-04-20T23:27:38.720Z,10.60
2019-04-20T23:30:23.724Z,10.93
2019-04-20T23:32:47.593Z,11.53
2019-04-20T23:35:23.461Z,11.33
2019-04-20T23:38:06.820Z,11.50
2019-04-20T23:40:31.955Z,11.73
2019-04-20T23:43:28.170Z,12.13
2019-04-20T23:46:19.401Z,13.30
2019-04-20T23:48:52.098Z,16.50
2019-04-20T23:51:49.599Z,15.57
2019-04-20T23:54:10.208Z,15.77
2019-04-20T23:56:35.379Z,14.13
2019-04-20T23:59:08.970Z,13.40
